Time;durP1;ratioP1;P1;durP2;ratioP2;P2;SDS_P1;SDS_P2;PMS_P1;PMS_P2;Temp;Humidity;BMP_temperature;BMP_pressure;BME280_temperature;BME280_humidity;BME280_pressure;Samples;Min_cycle;Max_cycle;Signal;HPM_P1;HPM_P2
2021/05/27 00:01:07;;;;;;;5.85;2.65;;;;;;;;;;4994955;28;20108;-74
2021/05/27 00:03:33;;;;;;;6.82;2.92;;;;;;;;;;4994394;28;20030;-75
2021/05/27 00:05:59;;;;;;;5.38;2.72;;;;;;;;;;4994208;28;20046;-71
2021/05/27 00:08:27;;;;;;;6.03;2.80;;;;;;;;;;4993483;28;20026;-75
2021/05/27 00:11:01;;;;;;;4.28;2.60;;;;;;;;;;4975006;28;20034;-76
2021/05/27 00:13:29;;;;;;;7.90;2.50;;;;;;;;;;4977545;28;20058;-75
2021/05/27 00:15:55;;;;;;;5.43;3.03;;;;;;;;;;4975800;28;20042;-75
2021/05/27 00:18:33;;;;;;;6.72;2.72;;;;;;;;;;4994905;28;20031;-75
2021/05/27 00:20:59;;;;;;;6.53;2.55;;;;;;;;;;4988457;28;20577;-73
2021/05/27 00:23:28;;;;;;;3.67;2.40;;;;;;;;;;5003343;28;20030;-72
2021/05/27 00:25:55;;;;;;;5.50;2.40;;;;;;;;;;4990495;28;20072;-75
2021/05/27 00:28:21;;;;;;;6.57;2.20;;;;;;;;;;4992996;28;20045;-74
2021/05/27 00:30:47;;;;;;;4.15;2.17;;;;;;;;;;4991243;28;20023;-74
2021/05/27 00:33:21;;;;;;;3.72;2.22;;;;;;;;;;4994263;28;20109;-73
2021/05/27 00:35:47;;;;;;;4.00;2.20;;;;;;;;;;4992030;28;20045;-71
2021/05/27 00:38:16;;;;;;;3.38;2.20;;;;;;;;;;4991098;28;20035;-74
2021/05/27 00:40:42;;;;;;;3.28;1.70;;;;;;;;;;4997420;28;20176;-76
2021/05/27 00:43:09;;;;;;;2.78;1.80;;;;;;;;;;4994163;28;20037;-76
2021/05/27 00:45:35;;;;;;;2.50;1.95;;;;;;;;;;4997336;28;20874;-72
2021/05/27 00:48:02;;;;;;;4.20;2.00;;;;;;;;;;4996077;28;20058;-74
2021/05/27 00:50:36;;;;;;;3.08;2.33;;;;;;;;;;4981255;28;20424;-73
2021/05/27 00:53:04;;;;;;;3.95;2.00;;;;;;;;;;4980047;28;20030;-72
2021/05/27 00:55:30;;;;;;;6.15;1.90;;;;;;;;;;4971451;28;20084;-72
2021/05/27 00:57:59;;;;;;;3.67;2.05;;;;;;;;;;4996943;28;20050;-77
2021/05/27 01:00:27;;;;;;;7.30;2.28;;;;;;;;;;4995148;28;20050;-74
2021/05/27 01:02:57;;;;;;;4.15;2.20;;;;;;;;;;4994866;28;20031;-78
2021/05/27 01:05:23;;;;;;;2.40;1.90;;;;;;;;;;4996340;28;20054;-76
2021/05/27 01:07:50;;;;;;;4.22;2.22;;;;;;;;;;5001635;28;21390;-72
2021/05/27 01:10:17;;;;;;;2.65;1.83;;;;;;;;;;4999609;28;20057;-72
2021/05/27 01:12:43;;;;;;;2.83;2.03;;;;;;;;;;4996122;28;20101;-76
2021/05/27 01:15:34;;;;;;;4.30;1.80;;;;;;;;;;4996243;28;20049;-74
2021/05/27 01:18:23;;;;;;;2.92;1.77;;;384.80;2022.40;;;;;;4991439;28;20030;-74
2021/05/27 01:21:00;;;;;;;1.98;1.58;;;384.60;2048.00;;;;;;4987237;28;20022;-75
2021/05/27 01:23:30;;;;;;;2.40;1.60;;;384.50;2022.40;;;;;;4990902;28;20121;-77
2021/05/27 01:25:58;;;;;;;4.07;1.80;;;384.50;2048.00;;;;;;4978316;28;20035;-75
2021/05/27 01:28:28;;;;;;;2.70;1.63;;;384.50;2022.40;;;;;;4995087;28;20065;-76
2021/05/27 01:30:55;;;;;;;3.38;1.90;;;384.50;2022.40;;;;;;5003637;28;20018;-76
2021/05/27 01:33:21;;;;;;;4.32;1.70;;;384.50;2048.00;;;;;;4984210;28;20043;-74
2021/05/27 01:35:47;;;;;;;4.25;1.80;;;384.50;2048.00;;;;;;4975029;28;20074;-73
2021/05/27 01:38:22;;;;;;;1.90;1.45;;;384.50;2022.40;;;;;;4994107;28;20031;-72
2021/05/27 01:40:49;;;;;;;2.63;1.70;;;384.50;2048.00;;;;;;4996497;28;20018;-74
2021/05/27 01:43:19;;;;;;;2.65;1.50;;;384.40;2048.00;;;;;;4988385;28;20527;-73
2021/05/27 01:45:48;;;;;;;2.65;1.60;;;409.60;2073.60;;;;;;4996406;28;20370;-72
2021/05/27 01:48:15;;;;;;;2.55;1.58;;;384.30;2048.00;;;;;;4993648;28;20085;-74
2021/05/27 01:50:43;;;;;;;3.40;1.70;;;435.20;2073.60;;;;;;4980367;28;20034;-76
2021/05/27 01:53:10;;;;;;;2.60;1.48;;;384.30;2048.00;;;;;;4978760;28;20043;-73
2021/05/27 01:55:42;;;;;;;4.18;1.80;;;384.30;2048.00;;;;;;4988775;28;20447;-72
2021/05/27 01:58:09;;;;;;;1.83;1.63;;;384.30;2048.00;;;;;;4970880;28;20066;-72
2021/05/27 02:00:36;;;;;;;3.53;1.88;;;384.30;2048.00;;;;;;4996783;28;20033;-74
2021/05/27 02:03:06;;;;;;;2.30;1.63;;;384.20;2073.60;;;;;;4998185;28;20037;-76
2021/05/27 02:05:32;;;;;;;2.22;1.40;;;384.40;2073.60;;;;;;4976515;28;20373;-73
2021/05/27 02:07:58;;;;;;;3.20;1.63;;;384.20;2073.60;;;;;;4993907;28;20504;-73
2021/05/27 02:10:27;;;;;;;3.72;1.63;;;384.20;2073.60;;;;;;4994349;28;20032;-75
2021/05/27 02:12:53;;;;;;;4.80;1.60;;;384.20;2048.00;;;;;;4994403;28;20065;-74
2021/05/27 02:15:19;;;;;;;2.38;1.30;;;384.10;2073.60;;;;;;4999344;28;20057;-75
2021/05/27 02:17:44;;;;;;;3.42;1.50;;;384.20;2073.60;;;;;;5003350;28;20038;-76
2021/05/27 02:20:14;;;;;;;2.08;1.60;;;384.20;2073.60;;;;;;4999698;28;20024;-76
2021/05/27 02:22:44;;;;;;;2.33;1.60;;;384.30;2073.60;;;;;;4997103;28;20117;-73
2021/05/27 02:25:13;;;;;;;3.05;1.38;;;384.30;2099.20;;;;;;4996223;28;20022;-75
2021/05/27 02:27:39;;;;;;;2.90;1.55;;;384.70;2099.20;;;;;;4996789;28;20102;-77
2021/05/27 02:30:08;;;;;;;2.20;1.70;;;384.30;2099.20;;;;;;4998817;28;20071;-73
2021/05/27 02:32:39;;;;;;;2.80;1.55;;;384.30;2099.20;;;;;;4994485;28;20097;-75
2021/05/27 02:35:08;;;;;;;2.10;1.30;;;384.30;2099.20;;;;;;4976569;28;20052;-74
2021/05/27 02:37:42;;;;;;;2.25;1.50;;;410.30;2150.40;;;;;;4987154;28;20063;-73
2021/05/27 02:40:08;;;;;;;5.82;1.77;;;384.30;2099.20;;;;;;4995796;28;20023;-75
2021/05/27 02:42:37;;;;;;;3.67;1.67;;;384.40;2099.20;;;;;;4992075;28;20081;-75
2021/05/27 02:45:04;;;;;;;4.35;1.70;;;384.40;2124.80;;;;;;4998567;28;20029;-74
2021/05/27 02:47:31;;;;;;;2.33;1.55;;;384.50;2099.20;;;;;;4978162;28;20113;-77
2021/05/27 02:49:57;;;;;;;2.65;1.63;;;384.50;2099.20;;;;;;4977801;28;20503;-76
2021/05/27 02:52:23;;;;;;;2.30;1.42;;;384.40;2099.20;;;;;;4994966;28;20022;-76
2021/05/27 02:54:48;;;;;;;2.03;1.55;;;384.40;2099.20;;;;;;4993836;28;20437;-72
2021/05/27 02:57:20;;;;;;;2.30;1.50;;;384.40;2099.20;;;;;;5000067;28;20113;-76
2021/05/27 02:59:46;;;;;;;3.90;1.40;;;384.40;2099.20;;;;;;5001701;28;20109;-72
2021/05/27 03:02:18;;;;;;;2.17;1.40;;;384.30;2099.20;;;;;;4993763;28;20057;-77
2021/05/27 03:04:44;;;;;;;1.70;1.50;;;;;;;;;;4993771;28;20027;-74
2021/05/27 03:07:10;;;;;;;1.58;1.40;;;;;;;;;;4975928;28;20065;-75
2021/05/27 03:09:36;;;;;;;3.10;1.92;;;;;;;;;;5003267;28;20026;-74
2021/05/27 03:12:05;;;;;;;5.22;1.77;;;;;;;;;;4996745;28;20060;-75
2021/05/27 03:14:31;;;;;;;4.72;1.92;;;;;;;;;;4981351;28;20085;-74
2021/05/27 03:17:03;;;;;;;3.80;1.75;;;;;;;;;;4997306;28;20066;-76
2021/05/27 03:19:33;;;;;;;3.55;2.13;;;;;;;;;;4995723;28;20115;-73
2021/05/27 03:22:02;;;;;;;4.40;1.75;;;;;;;;;;4993361;28;20475;-77
2021/05/27 03:24:28;;;;;;;2.67;1.77;;;;;;;;;;4975622;28;20408;-76
2021/05/27 03:26:58;;;;;;;2.40;1.63;;;;;;;;;;4992250;28;20041;-72
2021/05/27 03:29:24;;;;;;;2.72;1.55;;;;;;;;;;4975910;28;20085;-73
2021/05/27 03:31:53;;;;;;;4.10;1.77;;;;;;;;;;4994810;28;20473;-75
2021/05/27 03:34:20;;;;;;;4.97;2.83;;;;;;;;;;4971308;28;20026;-74
2021/05/27 03:36:54;;;;;;;7.40;2.65;;;;;;;;;;4993785;28;20136;-76
2021/05/27 03:39:20;;;;;;;7.90;2.65;;;;;;;;;;4975682;28;20038;-76
2021/05/27 03:41:46;;;;;;;6.88;2.80;;;;;;;;;;4985513;28;20113;-72
2021/05/27 03:44:13;;;;;;;4.95;2.30;;;;;;;;;;4995192;28;20026;-75
2021/05/27 03:46:46;;;;;;;3.80;2.22;;;;;;;;;;4992943;28;20026;-76
2021/05/27 03:49:14;;;;;;;4.68;2.33;;;;;;;;;;4988209;28;20029;-76
2021/05/27 03:51:43;;;;;;;5.47;2.80;;;;;;;;;;4976033;28;20022;-73
2021/05/27 03:54:16;;;;;;;8.88;2.60;;;;;;;;;;4991198;28;20057;-72
2021/05/27 03:56:45;;;;;;;;;;;;;;;;;;4970814;28;20113;-74
2021/05/27 04:01:55;;;;;;;10.52;3.08;;;;;;;;;;4970650;28;20037;-74
2021/05/27 04:07:14;;;;;;;6.03;2.30;;;;;;;;;;4970761;28;20097;-76
2021/05/27 04:09:42;;;;;;;4.57;2.20;;;;;;;;;;4968059;28;20027;-75
2021/05/27 04:17:43;;;;;;;6.20;3.45;;;;;;;;;;4962684;28;20046;-75
2021/05/27 04:20:33;;;;;;;7.72;3.60;;;;;;;;;;4971331;28;20026;-77
2021/05/27 04:23:00;;;;;;;8.93;4.32;;;;;;;;;;4968636;28;20081;-73
2021/05/27 04:25:30;;;;;;;10.52;4.00;;;;;;;;;;4978351;28;20031;-75
2021/05/27 04:27:57;;;;;;;10.25;4.15;;;;;;;;;;4972264;28;20404;-76
2021/05/27 04:30:23;;;;;;;8.93;3.47;;;;;;;;;;4987312;28;20254;-74
2021/05/27 04:32:58;;;;;;;7.85;3.90;;;;;;;;;;4990647;28;20042;-74
2021/05/27 04:35:29;;;;;;;7.65;3.65;;;;;;;;;;4983308;28;20514;-74
2021/05/27 04:37:56;;;;;;;6.82;3.50;;;;;;;;;;4986482;28;20090;-74
2021/05/27 04:40:23;;;;;;;10.50;3.67;;;;;;;;;;4976672;28;20039;-74
2021/05/27 04:42:51;;;;;;;14.50;3.30;;;;;;;;;;4988467;28;20731;-76
2021/05/27 04:45:19;;;;;;;12.00;3.53;;;;;;;;;;4993794;28;20027;-74
2021/05/27 04:47:55;;;;;;;8.68;2.92;;;;;;;;;;4972496;28;20038;-73
2021/05/27 04:50:22;;;;;;;9.15;2.95;;;;;;;;;;4961692;28;20025;-72
2021/05/27 04:52:49;;;;;;;8.45;2.45;;;;;;;;;;4980717;28;20031;-73
2021/05/27 04:55:15;;;;;;;5.35;2.58;;;;;;;;;;4976731;28;20388;-71
2021/05/27 04:57:42;;;;;;;7.10;2.70;;;;;;;;;;4979947;28;20038;-70
2021/05/27 05:00:10;;;;;;;3.50;1.95;;;;;;;;;;4979948;28;20101;-74
2021/05/27 05:02:36;;;;;;;8.38;2.30;;;;;;;;;;4991376;28;20031;-78
2021/05/27 05:05:03;;;;;;;2.95;2.10;;;;;;;;;;4986633;28;20022;-74
2021/05/27 05:07:29;;;;;;;16.10;2.85;;;;;;;;;;4964366;28;20034;-71
2021/05/27 05:09:55;;;;;;;3.72;1.83;;;;;;;;;;4984699;28;20029;-70
2021/05/27 05:12:21;;;;;;;3.40;2.00;;;;;;;;;;4978345;28;20041;-71
2021/05/27 05:14:50;;;;;;;3.20;1.98;;;;;;;;;;4985830;28;20608;-72
2021/05/27 05:17:16;;;;;;;3.35;1.52;;;;;;;;;;4988267;28;20101;-75
2021/05/27 05:19:42;;;;;;;3.08;1.80;;;;;;;;;;4994632;28;20058;-72
2021/05/27 05:22:09;;;;;;;4.72;1.90;;;;;;;;;;4986048;28;20377;-72
2021/05/27 05:24:36;;;;;;;3.35;1.67;;;;;;;;;;4995870;28;20398;-73
2021/05/27 05:27:02;;;;;;;5.20;1.92;;;;;;;;;;5001211;28;20064;-72
2021/05/27 05:29:28;;;;;;;3.33;1.77;;;;;;;;;;5001038;28;20030;-76
2021/05/27 05:31:55;;;;;;;5.97;1.90;;;;;;;;;;5000708;28;20037;-73
2021/05/27 05:34:21;;;;;;;3.70;1.65;;;;;;;;;;5000777;28;20550;-71
2021/05/27 05:36:48;;;;;;;2.70;1.83;;;;;;;;;;5000087;28;20474;-75
2021/05/27 05:39:14;;;;;;;2.97;2.05;;;;;;;;;;4976240;28;20073;-71
2021/05/27 05:41:41;;;;;;;2.85;1.88;;;;;;;;;;4988743;28;20037;-70
2021/05/27 05:44:07;;;;;;;7.00;2.10;;;;;;;;;;4998647;28;20022;-73
2021/05/27 05:46:33;;;;;;;2.38;1.73;;;;;;;;;;5005384;28;20029;-70
2021/05/27 05:48:59;;;;;;;9.15;2.17;;;;;;;;;;4995672;28;20037;-86
2021/05/27 05:51:25;;;;;;;9.73;1.80;;;;;;;;;;4993849;28;20023;-75
2021/05/27 05:53:51;;;;;;;3.15;1.83;;;;;;;;;;5002343;28;20056;-72
2021/05/27 05:56:17;;;;;;;6.43;2.25;;;;;;;;;;4999731;28;20511;-74
2021/05/27 05:58:44;;;;;;;3.20;1.75;;;;;;;;;;4992752;28;20030;-82
2021/05/27 06:01:10;;;;;;;7.10;2.40;;;;;;;;;;4991692;28;20057;-74
2021/05/27 06:03:36;;;;;;;6.13;1.90;;;;;;;;;;4989318;28;20027;-76
2021/05/27 06:06:02;;;;;;;4.75;1.67;;;;;;;;;;4988330;28;20388;-90
2021/05/27 06:08:28;;;;;;;11.02;1.95;;;;;;;;;;4993900;28;20097;-82
2021/05/27 06:10:54;;;;;;;7.15;1.90;;;;;;;;;;4979136;28;20046;-84
2021/05/27 06:13:20;;;;;;;5.93;2.10;;;;;;;;;;4972939;28;20116;-84
2021/05/27 06:15:49;;;;;;;20.83;2.10;;;;;;;;;;5002763;28;20022;-75
2021/05/27 06:18:16;;;;;;;4.07;1.95;;;;;;;;;;4991009;28;20030;-75
2021/05/27 06:20:42;;;;;;;3.45;1.65;;;;;;;;;;4997460;28;20448;-74
2021/05/27 06:23:09;;;;;;;4.00;1.80;;;;;;;;;;4998786;28;20380;-80
2021/05/27 06:25:37;;;;;;;5.05;2.00;;;;;;;;;;4981435;28;20484;-86
2021/05/27 06:28:03;;;;;;;3.42;1.55;;;;;;;;;;5007110;28;20022;-83
2021/05/27 06:30:29;;;;;;;7.28;1.90;;;;;;;;;;4995946;28;20037;-78
2021/05/27 06:32:56;;;;;;;4.38;2.05;;;;;;;;;;4994747;28;20018;-81
2021/05/27 06:35:22;;;;;;;8.02;1.90;;;;;;;;;;4994773;28;20030;-77
2021/05/27 06:37:48;;;;;;;9.50;2.00;;;;;;;;;;4995662;28;20472;-79
2021/05/27 06:40:19;;;;;;;4.38;1.80;;;;;;;;;;5004257;28;20022;-80
2021/05/27 06:42:46;;;;;;;4.53;2.40;;;;;;;;;;4990753;28;20026;-78
2021/05/27 06:45:12;;;;;;;5.07;1.90;;;;;;;;;;4994217;28;20030;-77
2021/05/27 06:47:38;;;;;;;4.78;2.03;;;;;;;;;;4994399;28;20053;-80
2021/05/27 06:50:06;;;;;;;6.15;2.40;;;;;;;;;;4995142;28;20033;-84
2021/05/27 06:52:32;;;;;;;6.97;2.08;;;;;;;;;;4995799;28;20056;-89
2021/05/27 06:54:58;;;;;;;6.38;1.90;;;;;;;;;;4994646;28;20027;-81
2021/05/27 06:57:25;;;;;;;10.88;2.70;;;;;;;;;;4975226;28;20537;-85
2021/05/27 06:59:53;;;;;;;4.78;1.90;;;;;;;;;;4991452;28;20034;-84
2021/05/27 07:02:19;;;;;;;5.68;1.98;;;;;;;;;;4984441;28;20019;-84
2021/05/27 07:04:46;;;;;;;5.03;1.83;;;;;;;;;;4986320;28;20061;-85
2021/05/27 07:07:13;;;;;;;15.52;3.03;;;;;;;;;;4977524;28;20058;-80
2021/05/27 07:09:39;;;;;;;4.88;1.90;;;;;;;;;;4989570;28;20112;-83
2021/05/27 07:12:09;;;;;;;6.93;1.90;;;;;;;;;;4988959;28;20066;-82
2021/05/27 07:14:35;;;;;;;2.63;1.63;;;;;;;;;;4970650;28;20113;-83
2021/05/27 07:17:04;;;;;;;4.70;1.95;;;;;;;;;;4994004;28;20477;-84
2021/05/27 07:19:31;;;;;;;6.03;1.90;;;;;;;;;;4976610;28;20500;-83
2021/05/27 07:21:59;;;;;;;3.53;1.60;;;;;;;;;;4970076;28;20741;-74
2021/05/27 07:24:25;;;;;;;3.90;1.80;;;;;;;;;;4989433;28;20113;-78
2021/05/27 07:26:51;;;;;;;5.28;2.10;;;;;;;;;;4991283;28;20488;-76
2021/05/27 07:29:17;;;;;;;6.93;2.50;;;;;;;;;;4989549;28;20022;-79
2021/05/27 07:31:43;;;;;;;3.00;1.77;;;;;;;;;;4992902;28;20014;-85
2021/05/27 07:34:09;;;;;;;5.05;2.08;;;;;;;;;;4970878;28;20019;-76
2021/05/27 07:36:36;;;;;;;4.53;2.10;;;;;;;;;;4991650;28;20053;-90
2021/05/27 07:39:02;;;;;;;2.88;1.83;;;;;;;;;;4992148;28;20054;-76
2021/05/27 07:41:30;;;;;;;5.55;2.20;;;;;;;;;;4991636;28;20026;-86
2021/05/27 07:43:56;;;;;;;4.03;2.20;;;;;;;;;;4975692;28;20037;-84
2021/05/27 07:46:25;;;;;;;5.30;2.03;;;;;;;;;;4994508;28;20030;-79
2021/05/27 07:48:51;;;;;;;4.28;2.05;;;;;;;;;;4973001;28;20492;-75
2021/05/27 07:51:17;;;;;;;2.55;1.70;;;;;;;;;;4986112;28;20073;-80
2021/05/27 07:53:43;;;;;;;4.55;1.90;;;;;;;;;;4991652;28;20038;-80
2021/05/27 07:56:11;;;;;;;10.32;2.10;;;;;;;;;;4973300;28;20047;-79
2021/05/27 07:58:37;;;;;;;4.53;1.83;;;;;;;;;;4991326;28;20038;-75
2021/05/27 08:01:05;;;;;;;14.77;2.63;;;;;;;;;;4996082;28;20029;-75
2021/05/27 08:03:31;;;;;;;5.18;2.00;;;;;;;;;;4992771;28;20096;-86
2021/05/27 08:05:57;;;;;;;2.67;1.90;;;;;;;;;;4987189;28;20065;-87
2021/05/27 08:08:23;;;;;;;3.67;2.05;;;;;;;;;;4992782;28;20077;-84
2021/05/27 08:10:52;;;;;;;6.80;2.95;;;;;;;;;;4990414;28;20027;-90
2021/05/27 08:13:29;;;;;;;2.65;1.73;;;;;;;;;;4974613;28;20144;-77
2021/05/27 08:15:55;;;;;;;2.67;1.67;;;;;;;;;;4992348;28;20449;-79
2021/05/27 08:18:21;;;;;;;2.13;1.75;;;;;;;;;;4974359;28;20562;-85
2021/05/27 08:20:48;;;;;;;8.75;1.85;;;;;;;;;;4967580;28;20123;-82
2021/05/27 08:23:14;;;;;;;3.38;1.80;;;;;;;;;;4988561;28;20028;-75
2021/05/27 08:25:40;;;;;;;7.93;1.95;;;;;;;;;;4986809;28;20078;-76
2021/05/27 08:28:06;;;;;;;6.38;2.08;;;;;;;;;;4991456;28;20033;-77
2021/05/27 08:30:32;;;;;;;2.65;1.80;;;;;;;;;;4979285;28;20043;-83
2021/05/27 08:32:59;;;;;;;4.75;2.10;;;;;;;;;;4990124;28;20038;-83
2021/05/27 08:35:39;;;;;;;5.63;1.80;;;;;;;;;;4989888;28;20088;-78
2021/05/27 08:38:16;;;;;;;6.07;2.15;;;;;;;;;;4981570;28;20138;-71
2021/05/27 08:40:52;;;;;;;5.65;2.25;;;;;;;;;;4984418;28;20040;-70
2021/05/27 08:43:32;;;;;;;6.57;2.10;;;;;;;;;;5009810;28;20074;-70
2021/05/27 08:46:08;;;;;;;5.25;2.30;;;;;;;;;;4993910;28;20033;-70
2021/05/27 08:48:34;;;;;;;5.07;2.03;;;;;;;;;;4986783;28;20034;-71
2021/05/27 08:51:01;;;;;;;4.72;2.13;;;;;;;;;;4988287;28;20373;-73
2021/05/27 08:53:29;;;;;;;7.15;2.10;;;;;;;;;;4986701;28;20069;-74
2021/05/27 08:55:55;;;;;;;4.50;2.00;;;;;;;;;;4988510;28;20066;-75
2021/05/27 08:58:26;;;;;;;5.25;2.05;;;;;;;;;;4986469;28;20055;-76
2021/05/27 09:00:53;;;;;;;4.50;2.00;;;;;;;;;;4970729;28;20419;-85
2021/05/27 09:03:41;;;;;;;4.22;1.92;;;;;;;;;;4992681;28;20050;-73
2021/05/27 09:09:07;;;;;;;6.30;1.95;;;;;;;;;;4963945;28;20134;-74
2021/05/27 09:11:37;;;;;;;6.45;1.90;;;;;;;;;;4954683;28;20035;-81
2021/05/27 09:14:36;;;;;;;;;;;;;;;;;;;;;
2021/05/27 09:17:02;;;;;;;4.05;2.28;;;;;;;;;;4931471;29;20043;-73
2021/05/27 09:19:28;;;;;;;5.28;2.63;;;;;;;;;;4918388;29;20049;-77
2021/05/27 09:21:54;;;;;;;2.83;2.00;;;;;;;;;;4896007;29;20433;-83
2021/05/27 09:24:39;;;;;;;8.20;2.10;;;;;;;;;;4895058;29;20025;-80
2021/05/27 09:27:34;;;;;;;3.90;2.03;;;;;;;;;;4894929;29;20475;-77
2021/05/27 09:30:00;;;;;;;11.75;2.17;;;;;;;;;;4897298;29;20402;-79
2021/05/27 09:32:29;;;;;;;3.60;1.77;;;;;;;;;;4900188;29;20036;-74
2021/05/27 09:34:58;;;;;;;2.95;1.80;;;;;;;;;;4899172;29;20543;-81
2021/05/27 09:37:31;;;;;;;3.35;1.63;;;;;;;;;;4906990;29;20047;-80
2021/05/27 09:39:58;;;;;;;12.23;3.53;;;;;;;;;;4915266;29;20044;-77
2021/05/27 09:42:24;;;;;;;7.50;2.00;;;;;;;;;;4916266;29;20386;-78
2021/05/27 09:44:51;;;;;;;8.07;2.30;;;;;;;;;;4917011;29;20124;-72
2021/05/27 09:47:33;;;;;;;4.38;1.77;;;;;;;;;;4915231;29;20044;-72
2021/05/27 09:49:59;;;;;;;7.43;2.10;;;;;;;;;;4916653;29;20035;-73
2021/05/27 09:52:26;;;;;;;7.20;2.13;;;;;;;;;;4923338;29;20064;-73
2021/05/27 09:54:59;;;;;;;3.63;2.25;;;;;;;;;;5001147;28;20116;-69
2021/05/27 09:57:26;;;;;;;8.93;2.25;;;;;;;;;;5010170;28;20100;-74
2021/05/27 09:59:52;;;;;;;7.38;2.30;;;;;;;;;;5013585;28;20033;-69
2021/05/27 10:02:19;;;;;;;2.88;1.80;;;;;;;;;;5013609;28;20025;-71
2021/05/27 10:04:54;;;;;;;4.53;2.22;;;;;;;;;;5014783;28;20030;-71
2021/05/27 10:07:39;;;;;;;8.25;2.13;;;;;;;;;;5013263;28;20033;-74
2021/05/27 10:10:06;;;;;;;3.10;1.80;;;;;;;;;;5013148;28;20031;-73
2021/05/27 10:12:36;;;;;;;5.03;2.20;;;;;;;;;;5011828;28;20022;-70
2021/05/27 10:15:03;;;;;;;5.15;2.28;;;;;;;;;;5011995;28;20072;-66
2021/05/27 10:17:30;;;;;;;3.90;1.88;;;;;;;;;;5013390;28;20022;-77
2021/05/27 10:19:56;;;;;;;4.75;2.13;;;;;;;;;;5013222;28;20554;-73
2021/05/27 10:22:22;;;;;;;2.40;1.77;;;;;;;;;;5012343;28;20399;-71
2021/05/27 10:24:48;;;;;;;2.55;1.83;;;;;;;;;;5013608;28;20026;-73
2021/05/27 10:27:14;;;;;;;4.80;2.08;;;;;;;;;;5013688;28;20033;-74
2021/05/27 10:29:43;;;;;;;4.10;2.00;;;;;;;;;;5013260;28;20438;-69
2021/05/27 10:32:10;;;;;;;3.30;2.20;;;;;;;;;;5012813;28;20511;-77
2021/05/27 10:34:42;;;;;;;5.00;2.00;;;;;;;;;;5013751;28;20029;-71
2021/05/27 10:37:08;;;;;;;4.97;2.00;;;;;;;;;;5008768;28;20054;-71
2021/05/27 10:39:37;;;;;;;3.30;2.10;;;;;;;;;;5000525;28;20042;-74
2021/05/27 10:42:03;;;;;;;3.25;1.83;;;;;;;;;;4993042;28;20026;-71
2021/05/27 10:44:29;;;;;;;4.70;2.20;;;;;;;;;;4992995;28;20032;-67
2021/05/27 10:46:55;;;;;;;11.18;2.20;;;;;;;;;;4988614;28;20027;-72
2021/05/27 10:49:45;;;;;;;5.63;2.22;;;;;;;;;;4994224;28;20531;-71
2021/05/27 10:52:43;;;;;;;4.22;1.88;;;;;;;;;;4993743;28;20033;-74
2021/05/27 10:55:39;;;;;;;5.47;1.80;;;;;;;;;;4928909;29;20524;-71
2021/05/27 10:58:05;;;;;;;10.68;2.60;;;;;;;;;;4911159;29;20048;-77
2021/05/27 11:00:31;;;;;;;10.23;2.15;;;;;;;;;;4904734;29;20506;-67
2021/05/27 11:03:17;;;;;;;8.15;1.98;;;;;;;;;;4925402;29;20481;-69
2021/05/27 11:06:03;;;;;;;3.83;1.77;;;;;;;;;;4926059;29;20048;-71
2021/05/27 11:08:29;;;;;;;9.00;2.20;;;;;;;;;;4914360;29;20036;-75
2021/05/27 11:10:55;;;;;;;4.32;2.00;;;;;;;;;;4924431;29;20042;-69
2021/05/27 11:13:21;;;;;;;2.33;1.67;;;;;;;;;;4921322;29;20040;-77
2021/05/27 11:16:04;;;;;;;4.82;1.83;;;;;;;;;;4925367;29;20084;-72
2021/05/27 11:18:33;;;;;;;3.80;1.70;;;;;;;;;;4927936;29;20096;-73
2021/05/27 11:21:19;;;;;;;16.80;2.80;;;;;;;;;;4921356;29;20032;-74
2021/05/27 11:24:37;;;;;;;6.82;2.55;;;;;;;;;;4930764;29;20036;-76
2021/05/27 11:27:22;;;;;;;9.40;2.20;;;;;;;;;;4889828;29;20512;-70
2021/05/27 11:30:06;;;;;;;3.47;2.00;;;;;;;;;;4885215;29;20498;-73
2021/05/27 11:32:35;;;;;;;4.75;1.90;;;;;;;;;;4911885;29;20042;-72
2021/05/27 11:35:06;;;;;;;3.67;1.98;;;;;;;;;;4915348;29;20162;-71
2021/05/27 11:37:35;;;;;;;4.70;1.77;;;;;;;;;;4916098;29;20052;-71
2021/05/27 11:40:02;;;;;;;3.20;1.75;;;;;;;;;;4915814;29;20050;-73
2021/05/27 11:42:28;;;;;;;2.50;1.98;;;;;;;;;;4914735;29;20036;-73
2021/05/27 11:44:57;;;;;;;4.10;1.98;;;;;;;;;;4905600;29;20040;-75
2021/05/27 11:47:23;;;;;;;5.13;2.08;;;;;;;;;;4910003;29;20048;-74
2021/05/27 11:50:09;;;;;;;3.80;2.05;;;;;;;;;;4913445;29;20096;-77
2021/05/27 11:52:36;;;;;;;7.18;2.00;;;;;;;;;;4920268;29;20030;-77
2021/05/27 11:55:03;;;;;;;4.80;2.03;;;;;;;;;;4917963;29;20036;-79
2021/05/27 11:57:44;;;;;;;3.30;2.00;;;;;;;;;;4919064;29;20512;-75
2021/05/27 12:00:12;;;;;;;6.18;2.22;;;;;;;;;;4929157;28;20043;-77
2021/05/27 12:02:45;;;;;;;5.55;1.85;;;;;;;;;;4972861;28;20420;-75
2021/05/27 12:05:20;;;;;;;5.05;2.20;;;;;;;;;;4991832;28;20029;-72
2021/05/27 12:07:57;;;;;;;6.03;2.08;;;;;;;;;;4996935;28;20077;-73
2021/05/27 12:10:23;;;;;;;21.50;2.80;;;;;;;;;;4991702;28;20038;-71
2021/05/27 12:12:49;;;;;;;7.07;2.10;;;;;;;;;;4991713;28;20023;-76
2021/05/27 12:15:16;;;;;;;3.67;1.92;;;;;;;;;;4992583;28;20030;-73
2021/05/27 12:17:45;;;;;;;8.27;2.58;;;;;;;;;;4992637;28;20026;-71
2021/05/27 12:20:20;;;;;;;4.65;2.05;;;;;;;;;;4993637;28;20022;-74
2021/05/27 12:22:49;;;;;;;2.53;1.70;;;;;;;;;;4993185;28;20025;-75
2021/05/27 12:25:16;;;;;;;4.55;2.00;;;;;;;;;;4992949;28;21051;-74
2021/05/27 12:27:43;;;;;;;4.30;1.95;;;;;;;;;;4991869;28;20096;-74
2021/05/27 12:30:10;;;;;;;9.18;2.40;;;;;;;;;;4992852;28;20133;-68
2021/05/27 12:32:39;;;;;;;7.07;2.10;;;;;;;;;;4995352;28;20555;-69
2021/05/27 12:35:07;;;;;;;3.80;2.05;;;;;;;;;;4995435;28;20045;-75
2021/05/27 12:37:48;;;;;;;3.78;2.10;;;;;;;;;;4995059;28;20508;-76
2021/05/27 12:40:44;;;;;;;7.97;2.10;;;;;;;;;;4995964;28;20045;-75
2021/05/27 12:43:30;;;;;;;21.10;2.53;;;;;;;;;;4916267;29;20080;-75
2021/05/27 12:45:58;;;;;;;2.97;2.13;;;;;;;;;;4921735;29;20097;-77
2021/05/27 12:48:31;;;;;;;3.53;1.75;;;;;;;;;;4917458;29;20402;-80
2021/05/27 12:51:00;;;;;;;71.90;5.60;;;;;;;;;;4904299;29;20047;-80
2021/05/27 12:53:32;;;;;;;4.15;1.77;;;;;;;;;;4914600;29;20168;-75
2021/05/27 12:56:11;;;;;;;4.63;2.00;;;;;;;;;;4916724;29;20051;-80
2021/05/27 12:58:38;;;;;;;12.13;2.53;;;;;;;;;;4915171;29;20131;-69
2021/05/27 13:01:04;;;;;;;3.25;2.65;;;;;;;;;;4918720;29;20039;-72
2021/05/27 13:03:33;;;;;;;7.97;2.67;;;;;;;;;;4916376;29;20043;-73
2021/05/27 13:06:08;;;;;;;6.07;2.10;;;;;;;;;;4914542;29;20036;-69
2021/05/27 13:08:35;;;;;;;11.43;2.22;;;;;;;;;;4911168;29;20418;-74
2021/05/27 13:11:01;;;;;;;14.95;2.63;;;;;;;;;;4915510;29;20028;-69
2021/05/27 13:13:31;;;;;;;13.35;2.15;;;;;;;;;;4915350;29;20072;-77
2021/05/27 13:15:57;;;;;;;9.13;2.30;;;;;;;;;;4916241;29;20114;-71
2021/05/27 13:18:23;;;;;;;3.78;1.88;;;;;;;;;;4932041;28;20028;-77
2021/05/27 13:21:00;;;;;;;4.88;1.95;;;;;;;;;;4993677;28;20492;-69
2021/05/27 13:23:26;;;;;;;5.05;2.10;;;;;;;;;;4995627;28;20026;-73
2021/05/27 13:25:52;;;;;;;7.57;2.20;;;;;;;;;;4995244;28;20022;-69
2021/05/27 13:28:25;;;;;;;8.13;2.10;;;;;;;;;;4993167;28;20038;-74
2021/05/27 13:30:51;;;;;;;5.63;2.30;;;;;;;;;;4997684;28;20106;-76
2021/05/27 13:33:19;;;;;;;8.38;2.10;;;;;;;;;;4992443;28;20530;-77
2021/05/27 13:35:46;;;;;;;15.07;2.42;;;;;;;;;;4991161;28;20026;-76
2021/05/27 13:38:17;;;;;;;14.27;2.40;;;;;;;;;;4983967;28;20514;-80
2021/05/27 13:40:43;;;;;;;31.08;3.97;;;;;;;;;;4995696;28;20030;-76
2021/05/27 13:43:09;;;;;;;4.35;2.00;;;;;;;;;;4995464;28;20073;-75
2021/05/27 13:45:36;;;;;;;12.07;2.70;;;;;;;;;;4998376;28;20034;-78
2021/05/27 13:48:04;;;;;;;4.60;1.95;;;;;;;;;;4998604;28;20046;-70
2021/05/27 13:50:33;;;;;;;2.92;2.03;;;;;;;;;;4997405;28;20528;-78
2021/05/27 13:53:04;;;;;;;3.50;1.73;;;;;;;;;;4992612;28;20038;-78
2021/05/27 13:55:32;;;;;;;5.57;2.20;;;;;;;;;;5000182;28;20026;-72
2021/05/27 13:57:59;;;;;;;4.55;1.98;;;;;;;;;;4996552;28;20034;-78
2021/05/27 14:00:25;;;;;;;7.18;2.10;;;;;;;;;;4997156;28;20030;-79
2021/05/27 14:02:51;;;;;;;4.95;1.83;;;;;;;;;;4994299;28;20025;-80
2021/05/27 14:05:18;;;;;;;6.85;1.80;;;;;;;;;;4987881;28;20070;-77
2021/05/27 14:07:45;;;;;;;2.22;1.77;;;;;;;;;;4995879;28;20049;-77
2021/05/27 14:10:11;;;;;;;3.17;1.65;;;;;;;;;;4996777;28;20121;-76
2021/05/27 14:12:37;;;;;;;9.75;2.05;;;;;;;;;;4999784;28;20018;-77
2021/05/27 14:15:03;;;;;;;4.35;2.10;;;;;;;;;;4996728;28;20113;-69
2021/05/27 14:17:33;;;;;;;5.60;1.60;;;;;;;;;;4999615;28;20037;-72
2021/05/27 14:19:59;;;;;;;5.13;2.20;;;;;;;;;;4993977;28;20043;-78
2021/05/27 14:22:27;;;;;;;3.60;1.90;;;;;;;;;;4996012;28;20488;-77
2021/05/27 14:24:54;;;;;;;7.22;2.33;;;;;;;;;;4994188;28;20181;-77
2021/05/27 14:27:20;;;;;;;11.75;2.28;;;;;;;;;;4997961;28;20026;-78
2021/05/27 14:29:46;;;;;;;7.22;2.00;;;;;;;;;;4993942;28;20026;-73
2021/05/27 14:32:15;;;;;;;3.55;1.95;;;;;;;;;;4995151;28;20077;-79
2021/05/27 14:34:42;;;;;;;5.82;2.22;;;;;;;;;;4997213;28;20057;-79
2021/05/27 14:37:08;;;;;;;11.55;2.13;;;;;;;;;;4993100;28;20779;-77
2021/05/27 14:39:34;;;;;;;4.20;2.00;;;;;;;;;;4992725;28;20082;-79
2021/05/27 14:42:00;;;;;;;4.32;1.90;;;;;;;;;;4993269;28;20018;-72
2021/05/27 14:44:26;;;;;;;3.83;1.80;;;;;;;;;;4972135;28;20034;-80
2021/05/27 14:46:52;;;;;;;3.17;2.03;;;;;;;;;;4998670;28;20049;-79